<?xml version="1.0" encoding="UTF-8" standalone="no" ?>
<gpx xmlns="http://www.topografix.com/GPX/1/1" xmlns:xsi="http://www.w3.org/2001/XMLSchema-instance" xsi:schemaLocation="http://www.topografix.com/GPX/1/1 http://www.topografix.com/GPX/1/1/gpx.xsd" version="1.1" creator="VisuGPX - https://www.visugpx.com">
  <metadata>
    <name>Hauteluce-Plan de la Mouille</name>
    <desc><![CDATA[Carte IGN TOP25 : 3531OT.
Niveau D.
Départ de Hauteluce-Les Granges.

]]></desc>
  </metadata>
  <trk>
    <name><![CDATA[Hauteluce-Plan de la Mouille]]></name>
    <cmt><![CDATA[Carte IGN TOP25 : 3531OT
Départ de Hauteluce-Les Granges.]]></cmt>
    <trkseg>
      <trkpt lat="45.75468" lon="6.6039">
        <ele>1143</ele>
        <time>2020-12-06T08:30:00.468Z</time>
      </trkpt>
      <trkpt lat="45.75475" lon="6.60411">
        <ele>1142</ele>
        <time>2020-12-06T08:30:22.839Z</time>
      </trkpt>
      <trkpt lat="45.75491" lon="6.60417">
        <ele>1142</ele>
        <time>2020-12-06T08:30:46.123Z</time>
      </trkpt>
      <trkpt lat="45.75514" lon="6.60492">
        <ele>1143</ele>
        <time>2020-12-06T08:32:07.925Z</time>
      </trkpt>
      <trkpt lat="45.75507" lon="6.6055">
        <ele>1144</ele>
        <time>2020-12-06T08:33:09.414Z</time>
      </trkpt>
      <trkpt lat="45.75544" lon="6.60676">
        <ele>1149</ele>
        <time>2020-12-06T08:35:32.847Z</time>
      </trkpt>
      <trkpt lat="45.75595" lon="6.60803">
        <ele>1153</ele>
        <time>2020-12-06T08:38:02.805Z</time>
      </trkpt>
      <trkpt lat="45.75656" lon="6.60853">
        <ele>1155</ele>
        <time>2020-12-06T08:39:44.927Z</time>
      </trkpt>
      <trkpt lat="45.75689" lon="6.60894">
        <ele>1156</ele>
        <time>2020-12-06T08:40:46.687Z</time>
      </trkpt>
      <trkpt lat="45.75707" lon="6.60938">
        <ele>1157</ele>
        <time>2020-12-06T08:41:37.922Z</time>
      </trkpt>
      <trkpt lat="45.75713" lon="6.61035">
        <ele>1158</ele>
        <time>2020-12-06T08:43:14.574Z</time>
      </trkpt>
      <trkpt lat="45.75725" lon="6.61073">
        <ele>1158</ele>
        <time>2020-12-06T08:43:55.389Z</time>
      </trkpt>
      <trkpt lat="45.75716" lon="6.61144">
        <ele>1159</ele>
        <time>2020-12-06T08:45:08.505Z</time>
      </trkpt>
      <trkpt lat="45.75724" lon="6.61167">
        <ele>1159</ele>
        <time>2020-12-06T08:45:34.315Z</time>
      </trkpt>
      <trkpt lat="45.75763" lon="6.61252">
        <ele>1161</ele>
        <time>2020-12-06T08:47:17.539Z</time>
      </trkpt>
      <trkpt lat="45.75736" lon="6.61259">
        <ele>1162</ele>
        <time>2020-12-06T08:47:59.895Z</time>
      </trkpt>
      <trkpt lat="45.75692" lon="6.61276">
        <ele>1166</ele>
        <time>2020-12-06T08:49:29.794Z</time>
      </trkpt>
      <trkpt lat="45.75635" lon="6.61318">
        <ele>1178</ele>
        <time>2020-12-06T08:52:31.418Z</time>
      </trkpt>
      <trkpt lat="45.7554" lon="6.61437">
        <ele>1214</ele>
        <time>2020-12-06T08:59:25.434Z</time>
      </trkpt>
      <trkpt lat="45.75499" lon="6.61492">
        <ele>1231</ele>
        <time>2020-12-06T09:02:22.812Z</time>
      </trkpt>
      <trkpt lat="45.75476" lon="6.61538">
        <ele>1241</ele>
        <time>2020-12-06T09:04:05.045Z</time>
      </trkpt>
      <trkpt lat="45.75497" lon="6.61569">
        <ele>1247</ele>
        <time>2020-12-06T09:05:17.403Z</time>
      </trkpt>
      <trkpt lat="45.75476" lon="6.61596">
        <ele>1253</ele>
        <time>2020-12-06T09:06:26.152Z</time>
      </trkpt>
      <trkpt lat="45.75524" lon="6.61646">
        <ele>1266</ele>
        <time>2020-12-06T09:09:06.343Z</time>
      </trkpt>
      <trkpt lat="45.75513" lon="6.61653">
        <ele>1269</ele>
        <time>2020-12-06T09:09:41.371Z</time>
      </trkpt>
      <trkpt lat="45.75527" lon="6.61675">
        <ele>1275</ele>
        <time>2020-12-06T09:10:51.375Z</time>
      </trkpt>
      <trkpt lat="45.75502" lon="6.61691">
        <ele>1284</ele>
        <time>2020-12-06T09:12:45.404Z</time>
      </trkpt>
      <trkpt lat="45.75536" lon="6.6171">
        <ele>1299</ele>
        <time>2020-12-06T09:15:49.817Z</time>
      </trkpt>
      <trkpt lat="45.75571" lon="6.61757">
        <ele>1322</ele>
        <time>2020-12-06T09:20:22.892Z</time>
      </trkpt>
      <trkpt lat="45.75618" lon="6.61808">
        <ele>1353</ele>
        <time>2020-12-06T09:25:43.903Z</time>
      </trkpt>
      <trkpt lat="45.7556" lon="6.61861">
        <ele>1384</ele>
        <time>2020-12-06T09:30:42.402Z</time>
      </trkpt>
      <trkpt lat="45.75575" lon="6.61937">
        <ele>1401</ele>
        <time>2020-12-06T09:33:24.716Z</time>
      </trkpt>
      <trkpt lat="45.75561" lon="6.62004">
        <ele>1411</ele>
        <time>2020-12-06T09:35:13.101Z</time>
      </trkpt>
      <trkpt lat="45.7553" lon="6.62048">
        <ele>1418</ele>
        <time>2020-12-06T09:36:43.985Z</time>
      </trkpt>
      <trkpt lat="45.75494" lon="6.6211">
        <ele>1427</ele>
        <time>2020-12-06T09:38:43.038Z</time>
      </trkpt>
      <trkpt lat="45.75467" lon="6.62171">
        <ele>1436</ele>
        <time>2020-12-06T09:40:40.699Z</time>
      </trkpt>
      <trkpt lat="45.75439" lon="6.62257">
        <ele>1450</ele>
        <time>2020-12-06T09:43:26.873Z</time>
      </trkpt>
      <trkpt lat="45.75432" lon="6.62312">
        <ele>1460</ele>
        <time>2020-12-06T09:45:14.604Z</time>
      </trkpt>
      <trkpt lat="45.75433" lon="6.6239">
        <ele>1473</ele>
        <time>2020-12-06T09:47:39.152Z</time>
      </trkpt>
      <trkpt lat="45.75429" lon="6.62463">
        <ele>1485</ele>
        <time>2020-12-06T09:49:48.131Z</time>
      </trkpt>
      <trkpt lat="45.75425" lon="6.62499">
        <ele>1490</ele>
        <time>2020-12-06T09:50:51.451Z</time>
      </trkpt>
      <trkpt lat="45.7543" lon="6.62532">
        <ele>1496</ele>
        <time>2020-12-06T09:51:52.471Z</time>
      </trkpt>
      <trkpt lat="45.75435" lon="6.62585">
        <ele>1504</ele>
        <time>2020-12-06T09:53:31.051Z</time>
      </trkpt>
      <trkpt lat="45.75416" lon="6.62628">
        <ele>1513</ele>
        <time>2020-12-06T09:55:06.795Z</time>
      </trkpt>
      <trkpt lat="45.75395" lon="6.62642">
        <ele>1518</ele>
        <time>2020-12-06T09:56:11.640Z</time>
      </trkpt>
      <trkpt lat="45.7537" lon="6.62644">
        <ele>1525</ele>
        <time>2020-12-06T09:57:28.379Z</time>
      </trkpt>
      <trkpt lat="45.75364" lon="6.62654">
        <ele>1527</ele>
        <time>2020-12-06T09:57:57.374Z</time>
      </trkpt>
      <trkpt lat="45.75391" lon="6.62685">
        <ele>1537</ele>
        <time>2020-12-06T09:59:48.991Z</time>
      </trkpt>
      <trkpt lat="45.75408" lon="6.62698">
        <ele>1542</ele>
        <time>2020-12-06T10:00:52.259Z</time>
      </trkpt>
      <trkpt lat="45.7542" lon="6.62713">
        <ele>1547</ele>
        <time>2020-12-06T10:01:43.980Z</time>
      </trkpt>
      <trkpt lat="45.75424" lon="6.62756">
        <ele>1556</ele>
        <time>2020-12-06T10:03:31.774Z</time>
      </trkpt>
      <trkpt lat="45.75431" lon="6.62802">
        <ele>1567</ele>
        <time>2020-12-06T10:05:26.601Z</time>
      </trkpt>
      <trkpt lat="45.75453" lon="6.62841">
        <ele>1577</ele>
        <time>2020-12-06T10:07:26.902Z</time>
      </trkpt>
      <trkpt lat="45.75493" lon="6.6289">
        <ele>1594</ele>
        <time>2020-12-06T10:10:38.321Z</time>
      </trkpt>
      <trkpt lat="45.7552" lon="6.6292">
        <ele>1605</ele>
        <time>2020-12-06T10:12:36.823Z</time>
      </trkpt>
      <trkpt lat="45.7556" lon="6.62955">
        <ele>1619</ele>
        <time>2020-12-06T10:15:11.642Z</time>
      </trkpt>
      <trkpt lat="45.75571" lon="6.62993">
        <ele>1627</ele>
        <time>2020-12-06T10:16:40.797Z</time>
      </trkpt>
      <trkpt lat="45.75595" lon="6.63">
        <ele>1634</ele>
        <time>2020-12-06T10:17:55.761Z</time>
      </trkpt>
      <trkpt lat="45.75622" lon="6.62993">
        <ele>1641</ele>
        <time>2020-12-06T10:19:10.512Z</time>
      </trkpt>
      <trkpt lat="45.75633" lon="6.62891">
        <ele>1658</ele>
        <time>2020-12-06T10:22:10.329Z</time>
      </trkpt>
      <trkpt lat="45.75661" lon="6.62858">
        <ele>1665</ele>
        <time>2020-12-06T10:23:37.328Z</time>
      </trkpt>
      <trkpt lat="45.75688" lon="6.6286">
        <ele>1671</ele>
        <time>2020-12-06T10:24:41.692Z</time>
      </trkpt>
      <trkpt lat="45.75725" lon="6.62888">
        <ele>1679</ele>
        <time>2020-12-06T10:26:23.770Z</time>
      </trkpt>
      <trkpt lat="45.75764" lon="6.62919">
        <ele>1690</ele>
        <time>2020-12-06T10:28:34.575Z</time>
      </trkpt>
      <trkpt lat="45.75823" lon="6.62937">
        <ele>1706</ele>
        <time>2020-12-06T10:31:58.939Z</time>
      </trkpt>
      <trkpt lat="45.75885" lon="6.63081">
        <ele>1744</ele>
        <time>2020-12-06T10:39:18.460Z</time>
      </trkpt>
      <trkpt lat="45.75914" lon="6.63131">
        <ele>1760</ele>
        <time>2020-12-06T10:42:24.098Z</time>
      </trkpt>
      <trkpt lat="45.75936" lon="6.63177">
        <ele>1775</ele>
        <time>2020-12-06T10:45:07.833Z</time>
      </trkpt>
      <trkpt lat="45.75956" lon="6.63208">
        <ele>1785</ele>
        <time>2020-12-06T10:47:02.362Z</time>
      </trkpt>
      <trkpt lat="45.75978" lon="6.63262">
        <ele>1801</ele>
        <time>2020-12-06T10:49:58.474Z</time>
      </trkpt>
      <trkpt lat="45.76" lon="6.63301">
        <ele>1813</ele>
        <time>2020-12-06T10:52:10.848Z</time>
      </trkpt>
      <trkpt lat="45.76047" lon="6.63373">
        <ele>1836</ele>
        <time>2020-12-06T10:56:22.576Z</time>
      </trkpt>
      <trkpt lat="45.76068" lon="6.63414">
        <ele>1847</ele>
        <time>2020-12-06T10:58:16.691Z</time>
      </trkpt>
      <trkpt lat="45.76081" lon="6.63477">
        <ele>1859</ele>
        <time>2020-12-06T11:00:27.960Z</time>
      </trkpt>
      <trkpt lat="45.76092" lon="6.63555">
        <ele>1873</ele>
        <time>2020-12-06T11:03:05.509Z</time>
      </trkpt>
      <trkpt lat="45.76089" lon="6.63628">
        <ele>1886</ele>
        <time>2020-12-06T11:05:19.714Z</time>
      </trkpt>
      <trkpt lat="45.76078" lon="6.63689">
        <ele>1895</ele>
        <time>2020-12-06T11:07:04.344Z</time>
      </trkpt>
      <trkpt lat="45.76043" lon="6.63763">
        <ele>1908</ele>
        <time>2020-12-06T11:09:26.599Z</time>
      </trkpt>
      <trkpt lat="45.76024" lon="6.63817">
        <ele>1915</ele>
        <time>2020-12-06T11:10:44.927Z</time>
      </trkpt>
      <trkpt lat="45.7599" lon="6.63859">
        <ele>1919</ele>
        <time>2020-12-06T11:11:53.521Z</time>
      </trkpt>
      <trkpt lat="45.75969" lon="6.6389">
        <ele>1920</ele>
        <time>2020-12-06T11:12:38.133Z</time>
      </trkpt>
      <trkpt lat="45.75936" lon="6.63922">
        <ele>1915</ele>
        <time>2020-12-06T12:31:09.742Z</time>
      </trkpt>
      <trkpt lat="45.7589" lon="6.63944">
        <ele>1906</ele>
        <time>2020-12-06T12:32:41.997Z</time>
      </trkpt>
      <trkpt lat="45.75849" lon="6.63969">
        <ele>1895</ele>
        <time>2020-12-06T12:34:12.383Z</time>
      </trkpt>
      <trkpt lat="45.75788" lon="6.6403">
        <ele>1877</ele>
        <time>2020-12-06T12:36:34.665Z</time>
      </trkpt>
      <trkpt lat="45.75741" lon="6.64058">
        <ele>1868</ele>
        <time>2020-12-06T12:37:49.470Z</time>
      </trkpt>
      <trkpt lat="45.75693" lon="6.6409">
        <ele>1866</ele>
        <time>2020-12-06T12:39:03.956Z</time>
      </trkpt>
      <trkpt lat="45.75655" lon="6.6409">
        <ele>1869</ele>
        <time>2020-12-06T12:40:13.387Z</time>
      </trkpt>
      <trkpt lat="45.75614" lon="6.64106">
        <ele>1876</ele>
        <time>2020-12-06T12:41:54.822Z</time>
      </trkpt>
      <trkpt lat="45.75579" lon="6.64119">
        <ele>1885</ele>
        <time>2020-12-06T12:43:39.778Z</time>
      </trkpt>
      <trkpt lat="45.75552" lon="6.64133">
        <ele>1893</ele>
        <time>2020-12-06T12:45:10.256Z</time>
      </trkpt>
      <trkpt lat="45.75502" lon="6.64146">
        <ele>1907</ele>
        <time>2020-12-06T12:47:40.334Z</time>
      </trkpt>
      <trkpt lat="45.75463" lon="6.64162">
        <ele>1917</ele>
        <time>2020-12-06T12:49:30.909Z</time>
      </trkpt>
      <trkpt lat="45.75433" lon="6.64166">
        <ele>1924</ele>
        <time>2020-12-06T12:50:42.006Z</time>
      </trkpt>
      <trkpt lat="45.75386" lon="6.64162">
        <ele>1933</ele>
        <time>2020-12-06T12:52:18.919Z</time>
      </trkpt>
      <trkpt lat="45.75345" lon="6.64172">
        <ele>1938</ele>
        <time>2020-12-06T12:53:26.076Z</time>
      </trkpt>
      <trkpt lat="45.75303" lon="6.64169">
        <ele>1941</ele>
        <time>2020-12-06T12:54:29.141Z</time>
      </trkpt>
      <trkpt lat="45.75267" lon="6.64169">
        <ele>1941</ele>
        <time>2020-12-06T12:55:18.891Z</time>
      </trkpt>
      <trkpt lat="45.7522" lon="6.64162">
        <ele>1939</ele>
        <time>2020-12-06T12:56:25.376Z</time>
      </trkpt>
      <trkpt lat="45.75195" lon="6.6416">
        <ele>1936</ele>
        <time>2020-12-06T12:57:02.579Z</time>
      </trkpt>
      <trkpt lat="45.75146" lon="6.6415">
        <ele>1930</ele>
        <time>2020-12-06T12:58:16.043Z</time>
      </trkpt>
      <trkpt lat="45.75086" lon="6.64129">
        <ele>1924</ele>
        <time>2020-12-06T12:59:43.000Z</time>
      </trkpt>
      <trkpt lat="45.75034" lon="6.64122">
        <ele>1922</ele>
        <time>2020-12-06T13:00:54.443Z</time>
      </trkpt>
      <trkpt lat="45.74978" lon="6.64117">
        <ele>1924</ele>
        <time>2020-12-06T13:02:21.148Z</time>
      </trkpt>
      <trkpt lat="45.74929" lon="6.6409">
        <ele>1929</ele>
        <time>2020-12-06T13:03:57.050Z</time>
      </trkpt>
      <trkpt lat="45.7483" lon="6.64082">
        <ele>1943</ele>
        <time>2020-12-06T13:07:01.296Z</time>
      </trkpt>
      <trkpt lat="45.74855" lon="6.64055">
        <ele>1946</ele>
        <time>2020-12-06T13:07:49.616Z</time>
      </trkpt>
      <trkpt lat="45.74851" lon="6.64001">
        <ele>1947</ele>
        <time>2020-12-06T13:08:42.085Z</time>
      </trkpt>
      <trkpt lat="45.74888" lon="6.63954">
        <ele>1944</ele>
        <time>2020-12-06T13:09:57.915Z</time>
      </trkpt>
      <trkpt lat="45.7488" lon="6.63833">
        <ele>1930</ele>
        <time>2020-12-06T13:12:14.721Z</time>
      </trkpt>
      <trkpt lat="45.74921" lon="6.63769">
        <ele>1921</ele>
        <time>2020-12-06T13:13:47.457Z</time>
      </trkpt>
      <trkpt lat="45.74924" lon="6.63728">
        <ele>1918</ele>
        <time>2020-12-06T13:14:31.343Z</time>
      </trkpt>
      <trkpt lat="45.74942" lon="6.63691">
        <ele>1914</ele>
        <time>2020-12-06T13:15:17.983Z</time>
      </trkpt>
      <trkpt lat="45.74978" lon="6.63703">
        <ele>1910</ele>
        <time>2020-12-06T13:16:14.869Z</time>
      </trkpt>
      <trkpt lat="45.75025" lon="6.63711">
        <ele>1902</ele>
        <time>2020-12-06T13:17:43.618Z</time>
      </trkpt>
      <trkpt lat="45.75096" lon="6.63691">
        <ele>1885</ele>
        <time>2020-12-06T13:20:13.113Z</time>
      </trkpt>
      <trkpt lat="45.75162" lon="6.63664">
        <ele>1867</ele>
        <time>2020-12-06T13:22:32.952Z</time>
      </trkpt>
      <trkpt lat="45.75233" lon="6.63624">
        <ele>1850</ele>
        <time>2020-12-06T13:24:56.527Z</time>
      </trkpt>
      <trkpt lat="45.75261" lon="6.63571">
        <ele>1841</ele>
        <time>2020-12-06T13:26:14.274Z</time>
      </trkpt>
      <trkpt lat="45.75268" lon="6.63513">
        <ele>1835</ele>
        <time>2020-12-06T13:27:15.429Z</time>
      </trkpt>
      <trkpt lat="45.75261" lon="6.63446">
        <ele>1831</ele>
        <time>2020-12-06T13:28:26.724Z</time>
      </trkpt>
      <trkpt lat="45.75209" lon="6.63422">
        <ele>1823</ele>
        <time>2020-12-06T13:30:04.759Z</time>
      </trkpt>
      <trkpt lat="45.75186" lon="6.63371">
        <ele>1812</ele>
        <time>2020-12-06T13:31:58.836Z</time>
      </trkpt>
      <trkpt lat="45.75152" lon="6.63323">
        <ele>1793</ele>
        <time>2020-12-06T13:34:53.287Z</time>
      </trkpt>
      <trkpt lat="45.7512" lon="6.6326">
        <ele>1765</ele>
        <time>2020-12-06T13:38:39.067Z</time>
      </trkpt>
      <trkpt lat="45.75134" lon="6.63234">
        <ele>1753</ele>
        <time>2020-12-06T13:40:05.450Z</time>
      </trkpt>
      <trkpt lat="45.75122" lon="6.63209">
        <ele>1743</ele>
        <time>2020-12-06T13:41:25.641Z</time>
      </trkpt>
      <trkpt lat="45.75102" lon="6.63193">
        <ele>1733</ele>
        <time>2020-12-06T13:42:22.545Z</time>
      </trkpt>
      <trkpt lat="45.75092" lon="6.63171">
        <ele>1727</ele>
        <time>2020-12-06T13:43:05.389Z</time>
      </trkpt>
      <trkpt lat="45.75045" lon="6.63156">
        <ele>1716</ele>
        <time>2020-12-06T13:44:28.669Z</time>
      </trkpt>
      <trkpt lat="45.75063" lon="6.6308">
        <ele>1708</ele>
        <time>2020-12-06T13:45:52.303Z</time>
      </trkpt>
      <trkpt lat="45.7501" lon="6.63051">
        <ele>1704</ele>
        <time>2020-12-06T13:47:10.496Z</time>
      </trkpt>
      <trkpt lat="45.74962" lon="6.62993">
        <ele>1701</ele>
        <time>2020-12-06T13:48:36.810Z</time>
      </trkpt>
      <trkpt lat="45.74943" lon="6.62973">
        <ele>1700</ele>
        <time>2020-12-06T13:49:09.762Z</time>
      </trkpt>
      <trkpt lat="45.74931" lon="6.62934">
        <ele>1700</ele>
        <time>2020-12-06T13:49:51.306Z</time>
      </trkpt>
      <trkpt lat="45.74922" lon="6.62891">
        <ele>1700</ele>
        <time>2020-12-06T13:50:36.340Z</time>
      </trkpt>
      <trkpt lat="45.74939" lon="6.62796">
        <ele>1701</ele>
        <time>2020-12-06T13:52:12.174Z</time>
      </trkpt>
      <trkpt lat="45.74927" lon="6.6272">
        <ele>1701</ele>
        <time>2020-12-06T13:53:27.233Z</time>
      </trkpt>
      <trkpt lat="45.74931" lon="6.6268">
        <ele>1699</ele>
        <time>2020-12-06T13:54:06.566Z</time>
      </trkpt>
      <trkpt lat="45.74929" lon="6.62639">
        <ele>1697</ele>
        <time>2020-12-06T13:54:47.723Z</time>
      </trkpt>
      <trkpt lat="45.74923" lon="6.62597">
        <ele>1694</ele>
        <time>2020-12-06T13:55:31.851Z</time>
      </trkpt>
      <trkpt lat="45.74927" lon="6.62537">
        <ele>1690</ele>
        <time>2020-12-06T13:56:33.861Z</time>
      </trkpt>
      <trkpt lat="45.74937" lon="6.62499">
        <ele>1687</ele>
        <time>2020-12-06T13:57:13.773Z</time>
      </trkpt>
      <trkpt lat="45.74944" lon="6.62446">
        <ele>1685</ele>
        <time>2020-12-06T13:58:06.277Z</time>
      </trkpt>
      <trkpt lat="45.74945" lon="6.62379">
        <ele>1686</ele>
        <time>2020-12-06T13:59:15.513Z</time>
      </trkpt>
      <trkpt lat="45.74918" lon="6.62247">
        <ele>1693</ele>
        <time>2020-12-06T14:01:51.429Z</time>
      </trkpt>
      <trkpt lat="45.74898" lon="6.62201">
        <ele>1698</ele>
        <time>2020-12-06T14:03:03.397Z</time>
      </trkpt>
      <trkpt lat="45.74865" lon="6.6218">
        <ele>1703</ele>
        <time>2020-12-06T14:04:07.704Z</time>
      </trkpt>
      <trkpt lat="45.7484" lon="6.62158">
        <ele>1706</ele>
        <time>2020-12-06T14:05:00.145Z</time>
      </trkpt>
      <trkpt lat="45.74813" lon="6.62119">
        <ele>1711</ele>
        <time>2020-12-06T14:06:03.669Z</time>
      </trkpt>
      <trkpt lat="45.74788" lon="6.6207">
        <ele>1714</ele>
        <time>2020-12-06T14:07:06.190Z</time>
      </trkpt>
      <trkpt lat="45.74768" lon="6.61997">
        <ele>1715</ele>
        <time>2020-12-06T14:08:22.327Z</time>
      </trkpt>
      <trkpt lat="45.74746" lon="6.61944">
        <ele>1714</ele>
        <time>2020-12-06T14:09:23.273Z</time>
      </trkpt>
      <trkpt lat="45.74723" lon="6.61881">
        <ele>1708</ele>
        <time>2020-12-06T14:10:39.119Z</time>
      </trkpt>
      <trkpt lat="45.74717" lon="6.61816">
        <ele>1701</ele>
        <time>2020-12-06T14:11:55.805Z</time>
      </trkpt>
      <trkpt lat="45.74718" lon="6.61746">
        <ele>1692</ele>
        <time>2020-12-06T14:13:20.371Z</time>
      </trkpt>
      <trkpt lat="45.74738" lon="6.61697">
        <ele>1685</ele>
        <time>2020-12-06T14:14:22.890Z</time>
      </trkpt>
      <trkpt lat="45.74741" lon="6.61642">
        <ele>1680</ele>
        <time>2020-12-06T14:15:20.375Z</time>
      </trkpt>
      <trkpt lat="45.74725" lon="6.6159">
        <ele>1676</ele>
        <time>2020-12-06T14:16:18.846Z</time>
      </trkpt>
      <trkpt lat="45.74702" lon="6.61556">
        <ele>1672</ele>
        <time>2020-12-06T14:17:07.849Z</time>
      </trkpt>
      <trkpt lat="45.7471" lon="6.61543">
        <ele>1671</ele>
        <time>2020-12-06T14:17:25.889Z</time>
      </trkpt>
      <trkpt lat="45.7473" lon="6.61555">
        <ele>1669</ele>
        <time>2020-12-06T14:17:58.875Z</time>
      </trkpt>
      <trkpt lat="45.74761" lon="6.61587">
        <ele>1665</ele>
        <time>2020-12-06T14:18:56.076Z</time>
      </trkpt>
      <trkpt lat="45.7478" lon="6.61601">
        <ele>1662</ele>
        <time>2020-12-06T14:19:29.195Z</time>
      </trkpt>
      <trkpt lat="45.7479" lon="6.61593">
        <ele>1660</ele>
        <time>2020-12-06T14:19:46.039Z</time>
      </trkpt>
      <trkpt lat="45.74775" lon="6.61506">
        <ele>1652</ele>
        <time>2020-12-06T14:21:20.912Z</time>
      </trkpt>
      <trkpt lat="45.7476" lon="6.61477">
        <ele>1649</ele>
        <time>2020-12-06T14:21:58.847Z</time>
      </trkpt>
      <trkpt lat="45.74717" lon="6.6143">
        <ele>1643</ele>
        <time>2020-12-06T14:23:18.472Z</time>
      </trkpt>
      <trkpt lat="45.74682" lon="6.61398">
        <ele>1639</ele>
        <time>2020-12-06T14:24:19.823Z</time>
      </trkpt>
      <trkpt lat="45.74656" lon="6.61386">
        <ele>1636</ele>
        <time>2020-12-06T14:24:58.934Z</time>
      </trkpt>
      <trkpt lat="45.74631" lon="6.61387">
        <ele>1634</ele>
        <time>2020-12-06T14:25:35.614Z</time>
      </trkpt>
      <trkpt lat="45.74617" lon="6.61355">
        <ele>1631</ele>
        <time>2020-12-06T14:26:15.064Z</time>
      </trkpt>
      <trkpt lat="45.74605" lon="6.61291">
        <ele>1626</ele>
        <time>2020-12-06T14:27:23.243Z</time>
      </trkpt>
      <trkpt lat="45.74597" lon="6.61227">
        <ele>1621</ele>
        <time>2020-12-06T14:28:28.264Z</time>
      </trkpt>
      <trkpt lat="45.7459" lon="6.6116">
        <ele>1618</ele>
        <time>2020-12-06T14:29:33.918Z</time>
      </trkpt>
      <trkpt lat="45.74587" lon="6.61113">
        <ele>1618</ele>
        <time>2020-12-06T14:30:19.682Z</time>
      </trkpt>
      <trkpt lat="45.74591" lon="6.61081">
        <ele>1618</ele>
        <time>2020-12-06T14:30:53.299Z</time>
      </trkpt>
      <trkpt lat="45.74582" lon="6.6103">
        <ele>1620</ele>
        <time>2020-12-06T14:31:48.411Z</time>
      </trkpt>
      <trkpt lat="45.74575" lon="6.60971">
        <ele>1622</ele>
        <time>2020-12-06T14:32:48.682Z</time>
      </trkpt>
      <trkpt lat="45.74557" lon="6.60919">
        <ele>1622</ele>
        <time>2020-12-06T14:33:44.571Z</time>
      </trkpt>
      <trkpt lat="45.74547" lon="6.60862">
        <ele>1619</ele>
        <time>2020-12-06T14:34:43.315Z</time>
      </trkpt>
      <trkpt lat="45.74534" lon="6.60814">
        <ele>1616</ele>
        <time>2020-12-06T14:35:37.233Z</time>
      </trkpt>
      <trkpt lat="45.74488" lon="6.60724">
        <ele>1606</ele>
        <time>2020-12-06T14:37:35.432Z</time>
      </trkpt>
      <trkpt lat="45.7449" lon="6.60717">
        <ele>1605</ele>
        <time>2020-12-06T14:37:43.143Z</time>
      </trkpt>
      <trkpt lat="45.74518" lon="6.60755">
        <ele>1600</ele>
        <time>2020-12-06T14:38:41.242Z</time>
      </trkpt>
      <trkpt lat="45.74541" lon="6.60779">
        <ele>1597</ele>
        <time>2020-12-06T14:39:22.102Z</time>
      </trkpt>
      <trkpt lat="45.74589" lon="6.60812">
        <ele>1592</ele>
        <time>2020-12-06T14:40:40.760Z</time>
      </trkpt>
      <trkpt lat="45.74602" lon="6.60839">
        <ele>1590</ele>
        <time>2020-12-06T14:41:12.997Z</time>
      </trkpt>
      <trkpt lat="45.7461" lon="6.60891">
        <ele>1587</ele>
        <time>2020-12-06T14:42:06.501Z</time>
      </trkpt>
      <trkpt lat="45.74628" lon="6.60936">
        <ele>1584</ele>
        <time>2020-12-06T14:42:58.189Z</time>
      </trkpt>
      <trkpt lat="45.74634" lon="6.60975">
        <ele>1582</ele>
        <time>2020-12-06T14:43:37.927Z</time>
      </trkpt>
      <trkpt lat="45.74655" lon="6.61022">
        <ele>1579</ele>
        <time>2020-12-06T14:44:32.060Z</time>
      </trkpt>
      <trkpt lat="45.74668" lon="6.6106">
        <ele>1578</ele>
        <time>2020-12-06T14:45:12.427Z</time>
      </trkpt>
      <trkpt lat="45.74666" lon="6.61096">
        <ele>1576</ele>
        <time>2020-12-06T14:45:48.068Z</time>
      </trkpt>
      <trkpt lat="45.74668" lon="6.61114">
        <ele>1576</ele>
        <time>2020-12-06T14:46:06.021Z</time>
      </trkpt>
      <trkpt lat="45.74681" lon="6.61146">
        <ele>1574</ele>
        <time>2020-12-06T14:46:42.495Z</time>
      </trkpt>
      <trkpt lat="45.74699" lon="6.61176">
        <ele>1572</ele>
        <time>2020-12-06T14:47:21.505Z</time>
      </trkpt>
      <trkpt lat="45.74711" lon="6.61179">
        <ele>1572</ele>
        <time>2020-12-06T14:47:39.024Z</time>
      </trkpt>
      <trkpt lat="45.74686" lon="6.6113">
        <ele>1568</ele>
        <time>2020-12-06T14:48:41.871Z</time>
      </trkpt>
      <trkpt lat="45.74679" lon="6.61096">
        <ele>1565</ele>
        <time>2020-12-06T14:49:21.061Z</time>
      </trkpt>
      <trkpt lat="45.74682" lon="6.61012">
        <ele>1555</ele>
        <time>2020-12-06T14:51:00.915Z</time>
      </trkpt>
      <trkpt lat="45.74671" lon="6.60935">
        <ele>1545</ele>
        <time>2020-12-06T14:52:34.639Z</time>
      </trkpt>
      <trkpt lat="45.74674" lon="6.60892">
        <ele>1540</ele>
        <time>2020-12-06T14:53:27.196Z</time>
      </trkpt>
      <trkpt lat="45.74686" lon="6.60846">
        <ele>1533</ele>
        <time>2020-12-06T14:54:27.565Z</time>
      </trkpt>
      <trkpt lat="45.74703" lon="6.60811">
        <ele>1528</ele>
        <time>2020-12-06T14:55:15.133Z</time>
      </trkpt>
      <trkpt lat="45.7471" lon="6.60789">
        <ele>1525</ele>
        <time>2020-12-06T14:55:43.347Z</time>
      </trkpt>
      <trkpt lat="45.7471" lon="6.60766">
        <ele>1523</ele>
        <time>2020-12-06T14:56:09.440Z</time>
      </trkpt>
      <trkpt lat="45.74696" lon="6.60738">
        <ele>1519</ele>
        <time>2020-12-06T14:56:45.259Z</time>
      </trkpt>
      <trkpt lat="45.7468" lon="6.6068">
        <ele>1515</ele>
        <time>2020-12-06T14:57:46.986Z</time>
      </trkpt>
      <trkpt lat="45.74656" lon="6.60607">
        <ele>1512</ele>
        <time>2020-12-06T14:59:04.357Z</time>
      </trkpt>
      <trkpt lat="45.74634" lon="6.6058">
        <ele>1510</ele>
        <time>2020-12-06T14:59:45.828Z</time>
      </trkpt>
      <trkpt lat="45.7464" lon="6.60568">
        <ele>1510</ele>
        <time>2020-12-06T15:00:00.193Z</time>
      </trkpt>
      <trkpt lat="45.74681" lon="6.60613">
        <ele>1506</ele>
        <time>2020-12-06T15:01:15.606Z</time>
      </trkpt>
      <trkpt lat="45.74741" lon="6.60696">
        <ele>1494</ele>
        <time>2020-12-06T15:03:28.667Z</time>
      </trkpt>
      <trkpt lat="45.7478" lon="6.60743">
        <ele>1485</ele>
        <time>2020-12-06T15:04:52.806Z</time>
      </trkpt>
      <trkpt lat="45.74785" lon="6.6078">
        <ele>1481</ele>
        <time>2020-12-06T15:05:34.147Z</time>
      </trkpt>
      <trkpt lat="45.74782" lon="6.60877">
        <ele>1472</ele>
        <time>2020-12-06T15:07:16.547Z</time>
      </trkpt>
      <trkpt lat="45.74796" lon="6.60916">
        <ele>1469</ele>
        <time>2020-12-06T15:08:00.184Z</time>
      </trkpt>
      <trkpt lat="45.74804" lon="6.60972">
        <ele>1466</ele>
        <time>2020-12-06T15:08:57.584Z</time>
      </trkpt>
      <trkpt lat="45.74806" lon="6.61018">
        <ele>1463</ele>
        <time>2020-12-06T15:09:44.066Z</time>
      </trkpt>
      <trkpt lat="45.7482" lon="6.61044">
        <ele>1461</ele>
        <time>2020-12-06T15:10:17.146Z</time>
      </trkpt>
      <trkpt lat="45.74814" lon="6.61019">
        <ele>1459</ele>
        <time>2020-12-06T15:10:43.442Z</time>
      </trkpt>
      <trkpt lat="45.74817" lon="6.60982">
        <ele>1457</ele>
        <time>2020-12-06T15:11:20.890Z</time>
      </trkpt>
      <trkpt lat="45.74822" lon="6.60934">
        <ele>1453</ele>
        <time>2020-12-06T15:12:13.134Z</time>
      </trkpt>
      <trkpt lat="45.74831" lon="6.60879">
        <ele>1448</ele>
        <time>2020-12-06T15:13:13.234Z</time>
      </trkpt>
      <trkpt lat="45.74838" lon="6.60845">
        <ele>1444</ele>
        <time>2020-12-06T15:13:52.100Z</time>
      </trkpt>
      <trkpt lat="45.74862" lon="6.60774">
        <ele>1436</ele>
        <time>2020-12-06T15:15:17.608Z</time>
      </trkpt>
      <trkpt lat="45.74868" lon="6.60733">
        <ele>1432</ele>
        <time>2020-12-06T15:16:02.348Z</time>
      </trkpt>
      <trkpt lat="45.74876" lon="6.60703">
        <ele>1429</ele>
        <time>2020-12-06T15:16:34.726Z</time>
      </trkpt>
      <trkpt lat="45.74874" lon="6.60682">
        <ele>1428</ele>
        <time>2020-12-06T15:16:56.072Z</time>
      </trkpt>
      <trkpt lat="45.7485" lon="6.60626">
        <ele>1425</ele>
        <time>2020-12-06T15:17:59.998Z</time>
      </trkpt>
      <trkpt lat="45.74838" lon="6.60579">
        <ele>1424</ele>
        <time>2020-12-06T15:18:48.038Z</time>
      </trkpt>
      <trkpt lat="45.74816" lon="6.6052">
        <ele>1422</ele>
        <time>2020-12-06T15:19:52.076Z</time>
      </trkpt>
      <trkpt lat="45.74801" lon="6.60466">
        <ele>1420</ele>
        <time>2020-12-06T15:20:51.996Z</time>
      </trkpt>
      <trkpt lat="45.74781" lon="6.60412">
        <ele>1414</ele>
        <time>2020-12-06T15:21:58.272Z</time>
      </trkpt>
      <trkpt lat="45.74762" lon="6.60376">
        <ele>1409</ele>
        <time>2020-12-06T15:22:52.551Z</time>
      </trkpt>
      <trkpt lat="45.74736" lon="6.60331">
        <ele>1401</ele>
        <time>2020-12-06T15:24:04.293Z</time>
      </trkpt>
      <trkpt lat="45.74706" lon="6.60293">
        <ele>1394</ele>
        <time>2020-12-06T15:25:09.235Z</time>
      </trkpt>
      <trkpt lat="45.74651" lon="6.60237">
        <ele>1385</ele>
        <time>2020-12-06T15:26:51.772Z</time>
      </trkpt>
      <trkpt lat="45.74624" lon="6.60236">
        <ele>1381</ele>
        <time>2020-12-06T15:27:33.386Z</time>
      </trkpt>
      <trkpt lat="45.74607" lon="6.60229">
        <ele>1379</ele>
        <time>2020-12-06T15:27:59.080Z</time>
      </trkpt>
      <trkpt lat="45.74594" lon="6.60205">
        <ele>1377</ele>
        <time>2020-12-06T15:28:31.815Z</time>
      </trkpt>
      <trkpt lat="45.74573" lon="6.60134">
        <ele>1370</ele>
        <time>2020-12-06T15:29:55.141Z</time>
      </trkpt>
      <trkpt lat="45.74561" lon="6.60121">
        <ele>1367</ele>
        <time>2020-12-06T15:30:18.122Z</time>
      </trkpt>
      <trkpt lat="45.74543" lon="6.60118">
        <ele>1364</ele>
        <time>2020-12-06T15:30:46.577Z</time>
      </trkpt>
      <trkpt lat="45.74522" lon="6.60086">
        <ele>1360</ele>
        <time>2020-12-06T15:31:34.411Z</time>
      </trkpt>
      <trkpt lat="45.74501" lon="6.60067">
        <ele>1356</ele>
        <time>2020-12-06T15:32:13.324Z</time>
      </trkpt>
      <trkpt lat="45.7451" lon="6.60064">
        <ele>1355</ele>
        <time>2020-12-06T15:32:27.425Z</time>
      </trkpt>
      <trkpt lat="45.74535" lon="6.60074">
        <ele>1351</ele>
        <time>2020-12-06T15:33:05.872Z</time>
      </trkpt>
      <trkpt lat="45.7455" lon="6.60089">
        <ele>1349</ele>
        <time>2020-12-06T15:33:34.293Z</time>
      </trkpt>
      <trkpt lat="45.74579" lon="6.60084">
        <ele>1346</ele>
        <time>2020-12-06T15:34:15.820Z</time>
      </trkpt>
      <trkpt lat="45.74601" lon="6.60097">
        <ele>1344</ele>
        <time>2020-12-06T15:34:49.565Z</time>
      </trkpt>
      <trkpt lat="45.74612" lon="6.60119">
        <ele>1343</ele>
        <time>2020-12-06T15:35:15.956Z</time>
      </trkpt>
      <trkpt lat="45.74628" lon="6.6013">
        <ele>1342</ele>
        <time>2020-12-06T15:35:40.611Z</time>
      </trkpt>
      <trkpt lat="45.74646" lon="6.60127">
        <ele>1341</ele>
        <time>2020-12-06T15:36:06.699Z</time>
      </trkpt>
      <trkpt lat="45.7467" lon="6.60113">
        <ele>1339</ele>
        <time>2020-12-06T15:36:43.533Z</time>
      </trkpt>
      <trkpt lat="45.74693" lon="6.60124">
        <ele>1337</ele>
        <time>2020-12-06T15:37:17.601Z</time>
      </trkpt>
      <trkpt lat="45.74713" lon="6.60147">
        <ele>1335</ele>
        <time>2020-12-06T15:37:55.048Z</time>
      </trkpt>
      <trkpt lat="45.74736" lon="6.60164">
        <ele>1332</ele>
        <time>2020-12-06T15:38:34.135Z</time>
      </trkpt>
      <trkpt lat="45.74719" lon="6.60099">
        <ele>1326</ele>
        <time>2020-12-06T15:39:50.538Z</time>
      </trkpt>
      <trkpt lat="45.74686" lon="6.60057">
        <ele>1318</ele>
        <time>2020-12-06T15:41:06.900Z</time>
      </trkpt>
      <trkpt lat="45.74652" lon="6.60049">
        <ele>1312</ele>
        <time>2020-12-06T15:42:10.859Z</time>
      </trkpt>
      <trkpt lat="45.74626" lon="6.60005">
        <ele>1302</ele>
        <time>2020-12-06T15:43:37.144Z</time>
      </trkpt>
      <trkpt lat="45.74665" lon="6.59986">
        <ele>1291</ele>
        <time>2020-12-06T15:45:14.566Z</time>
      </trkpt>
      <trkpt lat="45.74715" lon="6.59958">
        <ele>1274</ele>
        <time>2020-12-06T15:47:39.754Z</time>
      </trkpt>
      <trkpt lat="45.74769" lon="6.59902">
        <ele>1250</ele>
        <time>2020-12-06T15:50:45.315Z</time>
      </trkpt>
      <trkpt lat="45.74821" lon="6.59901">
        <ele>1233</ele>
        <time>2020-12-06T15:52:45.576Z</time>
      </trkpt>
      <trkpt lat="45.74865" lon="6.59914">
        <ele>1222</ele>
        <time>2020-12-06T15:54:12.716Z</time>
      </trkpt>
      <trkpt lat="45.74884" lon="6.59947">
        <ele>1216</ele>
        <time>2020-12-06T15:55:01.127Z</time>
      </trkpt>
      <trkpt lat="45.74924" lon="6.59964">
        <ele>1211</ele>
        <time>2020-12-06T15:56:01.221Z</time>
      </trkpt>
      <trkpt lat="45.7496" lon="6.59981">
        <ele>1208</ele>
        <time>2020-12-06T15:56:56.239Z</time>
      </trkpt>
      <trkpt lat="45.74974" lon="6.59975">
        <ele>1206</ele>
        <time>2020-12-06T15:57:18.184Z</time>
      </trkpt>
      <trkpt lat="45.74987" lon="6.59987">
        <ele>1205</ele>
        <time>2020-12-06T15:57:40.289Z</time>
      </trkpt>
      <trkpt lat="45.75008" lon="6.60013">
        <ele>1202</ele>
        <time>2020-12-06T15:58:23.396Z</time>
      </trkpt>
      <trkpt lat="45.75071" lon="6.60043">
        <ele>1192</ele>
        <time>2020-12-06T16:00:09.324Z</time>
      </trkpt>
      <trkpt lat="45.75136" lon="6.60065">
        <ele>1181</ele>
        <time>2020-12-06T16:02:01.864Z</time>
      </trkpt>
      <trkpt lat="45.75174" lon="6.60071">
        <ele>1174</ele>
        <time>2020-12-06T16:03:04.388Z</time>
      </trkpt>
      <trkpt lat="45.75191" lon="6.60093">
        <ele>1171</ele>
        <time>2020-12-06T16:03:41.852Z</time>
      </trkpt>
      <trkpt lat="45.75215" lon="6.60109">
        <ele>1166</ele>
        <time>2020-12-06T16:04:29.522Z</time>
      </trkpt>
      <trkpt lat="45.75227" lon="6.6013">
        <ele>1162</ele>
        <time>2020-12-06T16:05:07.040Z</time>
      </trkpt>
      <trkpt lat="45.7524" lon="6.60137">
        <ele>1159</ele>
        <time>2020-12-06T16:05:36.900Z</time>
      </trkpt>
      <trkpt lat="45.75313" lon="6.60082">
        <ele>1138</ele>
        <time>2020-12-06T16:08:31.696Z</time>
      </trkpt>
      <trkpt lat="45.75357" lon="6.60076">
        <ele>1126</ele>
        <time>2020-12-06T16:09:46.756Z</time>
      </trkpt>
      <trkpt lat="45.75397" lon="6.60161">
        <ele>1118</ele>
        <time>2020-12-06T16:11:36.026Z</time>
      </trkpt>
      <trkpt lat="45.75439" lon="6.60279">
        <ele>1136</ele>
        <time>2020-12-06T16:14:36.379Z</time>
      </trkpt>
      <trkpt lat="45.75467" lon="6.60336">
        <ele>1138</ele>
        <time>2020-12-06T16:15:48.707Z</time>
      </trkpt>
      <trkpt lat="45.7548" lon="6.60358">
        <ele>1134</ele>
        <time>2020-12-06T16:16:15.863Z</time>
      </trkpt>
    </trkseg>
  </trk>
</gpx>